Detall de PIREP

Printer-friendly versionPDF version

[2012/04/27 08:44:00]
Flight IATA:CT3402
Pilot Number:011
Company ICAO:CAT
Aircraft Type:B738/F
PAX:160
Departing Airport: LEBL
Destination Airport: ENGM
Alternate Airport:ESGG
Online: VATSIM
Route:OKABI UN861 FISTO UY156 ADABI UN858 VADOM UN874 VEKIN UN873 VES UP601 TOR
Flight Level:F360
No Slew and time accel
No pause
Crash detect
Detect pilot in Cockpit between each 30 and 45 minutes
08:44 Zero fuel Weight: 135990 Lbs, Fuel Weight: 27636 Lbs
08:44 VATSIM:LEBL 270830Z 07020KT 9999 FEW020 18/13 Q1011 NOSIG
08:44 VATSIM:ENGM 270811Z 21014KT 9999 -SHRA SCT009 BKN011 07/06 Q1001 TEMPO SCT010 BKN015
08:46 Parking Brakes off
09:06 Take-off
09:06 Take off Weight: 161778 Lbs
09:06 Wind: 072º @ 019 Knots Heading: 065º
09:06 POS N41º 17´ 24´´ E002º 05´ 48´´
09:06 Gear Up: 207 Knots
09:06 Flaps:5 at 207 Knots
09:07 Flaps:4 at 259 Knots
09:08 Flaps:3 at 250 Knots
09:08 Flaps:2 at 250 Knots
09:08 Flaps:1 at 251 Knots
09:08 Flaps:0 at 251 Knots
09:21 Wind:083º@023 Knots Heading: 331º Ground Speed: 409 Knots Altitude 28871 ft
09:25 TOC
09:25 Fuel Weight: 22261 Lb
09:36 Wind:118º@060 Knots Heading: 000º Ground Speed: 478 Knots Altitude 35938 ft
09:51 Wind:044º@016 Knots Heading: 333º Ground Speed: 450 Knots Altitude 36017 ft
10:06 Wind:169º@016 Knots Heading: 003º Ground Speed: 468 Knots Altitude 36056 ft
10:21 Wind:193º@048 Knots Heading: 054º Ground Speed: 488 Knots Altitude 36059 ft
10:36 Wind:213º@049 Knots Heading: 021º Ground Speed: 504 Knots Altitude 36040 ft
10:51 Wind:217º@079 Knots Heading: 062º Ground Speed: 529 Knots Altitude 35987 ft
11:06 Wind:220º@058 Knots Heading: 019º Ground Speed: 510 Knots Altitude 35994 ft
11:21 Wind:218º@072 Knots Heading: 012º Ground Speed: 528 Knots Altitude 35892 ft
11:34 TOD
11:34 Fuel Weight: 11309 Lb
11:36 Wind:213º@038 Knots Heading: 015º Ground Speed: 492 Knots Altitude 32463 ft
11:51 Wind:309º@043 Knots Heading: 071º Ground Speed: 308 Knots Altitude 7700 ft
11:51 Flaps:1 at 260 Knots
11:51 Flaps:2 at 260 Knots
11:54 Flaps:3 at 256 Knots
11:54 Flaps:4 at 257 Knots
11:55 Flaps:5 at 200 Knots
11:57 Flaps:6 at 193 Knots
11:57 Gear Down: 191 Knots
11:58 Flaps:7 at 167 Knots
11:58 Flaps:8 at 153 Knots
12:00 TouchDown:Rate -182 ft/min Speed: 122 Knots
12:00 VATSIM:ENGM 271110Z 21010KT 170V230 9999 -SHRA BKN010 08/06 Q1003 TEMPO BKN009
12:00 Land
12:00 Wind:212º@010 Knots
12:00 Heading: 014º
12:00 Flight Duration: 02:54
12:00 Landing Weight: 145889 Lbs
12:00 POS N60º 11´ 17´´ E011º 06´ 54´´
12:03 Parking brakes on
12:03 Block to Block Duration: 03:17
12:03 Final Fuel: 9682 Lbls
12:03 Spent Fuel: 17954 Lbls
12:03 Flight Length: 1094 NM
12:03 TOD Land Length: 144 NM

Exportar CSV

Powered by Drupal - Modified by Danger4k